createdAt,value
2023-04-17T00:01:26.168Z,92.43
2023-04-17T00:03:32.165Z,92.19
2023-04-17T00:05:39.914Z,92.55
2023-04-17T00:07:52.653Z,92.83
2023-04-17T00:10:11.560Z,92.64
2023-04-17T00:12:23.209Z,92.51
2023-04-17T00:14:28.658Z,92.79
2023-04-17T00:16:33.693Z,93.05
2023-04-17T00:18:38.795Z,93.34
2023-04-17T00:20:43.945Z,92.91
2023-04-17T00:22:52.027Z,93.15
2023-04-17T00:24:57.106Z,92.89
2023-04-17T00:27:02.580Z,92.92
2023-04-17T00:29:07.737Z,92.92
2023-04-17T00:31:12.743Z,92.92
2023-04-17T00:33:19.643Z,93.14
2023-04-17T00:35:24.713Z,93.45
2023-04-17T00:37:29.857Z,93.35
2023-04-17T00:39:41.041Z,93.06
2023-04-17T00:41:46.161Z,92.29
2023-04-17T00:43:51.200Z,92.18
2023-04-17T00:45:57.596Z,92.87
2023-04-17T00:48:03.699Z,93.37
2023-04-17T00:50:10.780Z,93.26
2023-04-17T00:52:19.383Z,93.93
2023-04-17T00:54:26.347Z,93.46
2023-04-17T00:56:34.374Z,93.41
2023-04-17T00:58:40.702Z,93.72
2023-04-17T01:00:55.982Z,93.39
2023-04-17T01:03:03.608Z,93.67
2023-04-17T01:05:13.686Z,93.83
2023-04-17T01:07:38.054Z,93.79
2023-04-17T01:09:48.228Z,93.86
2023-04-17T01:12:21.748Z,93.93
2023-04-17T01:14:33.788Z,94.04
2023-04-17T01:16:49.230Z,94.32
2023-04-17T01:19:03.096Z,93.73
2023-04-17T01:21:25.228Z,93.86
2023-04-17T01:23:35.139Z,93.79
2023-04-17T01:25:51.910Z,93.89
2023-04-17T01:28:00.008Z,93.93
2023-04-17T01:30:12.427Z,94.10
2023-04-17T01:32:32.980Z,94.32
2023-04-17T01:34:44.920Z,94.27
2023-04-17T01:36:58.753Z,94.73
2023-04-17T01:39:04.392Z,94.22
2023-04-17T01:41:16.173Z,94.61
2023-04-17T01:43:27.194Z,94.84
2023-04-17T01:45:35.654Z,94.61
2023-04-17T01:48:02.010Z,94.73
2023-04-17T01:50:09.414Z,94.56
2023-04-17T01:52:14.348Z,95.25
2023-04-17T01:54:21.215Z,94.56
2023-04-17T01:56:29.318Z,94.49
2023-04-17T01:58:34.507Z,94.66
2023-04-17T02:00:39.556Z,95.12
2023-04-17T02:02:44.740Z,94.81
2023-04-17T02:04:50.453Z,95.14
2023-04-17T02:06:55.404Z,95.06
2023-04-17T02:09:00.523Z,95.24
2023-04-17T02:11:05.465Z,94.72
2023-04-17T02:13:13.650Z,94.82
2023-04-17T02:15:20.449Z,95.07
2023-04-17T02:17:28.479Z,94.90
2023-04-17T02:19:33.503Z,94.87
2023-04-17T02:21:38.509Z,95.04
2023-04-17T02:23:43.514Z,95.59
2023-04-17T02:25:50.513Z,95.53
2023-04-17T02:27:56.548Z,95.72
2023-04-17T02:30:04.438Z,95.84
2023-04-17T02:32:09.527Z,95.77
2023-04-17T02:34:14.715Z,95.75
2023-04-17T02:36:20.705Z,95.50
2023-04-17T02:38:26.042Z,95.66
2023-04-17T02:40:31.168Z,95.57
2023-04-17T02:42:36.320Z,95.54
2023-04-17T02:44:41.621Z,95.46
2023-04-17T02:46:51.817Z,95.21
2023-04-17T02:48:56.874Z,95.31
2023-04-17T02:51:01.742Z,95.37
2023-04-17T02:53:06.852Z,95.45
2023-04-17T02:55:12.766Z,95.48
2023-04-17T02:57:18.520Z,94.98
2023-04-17T02:59:23.625Z,95.11
2023-04-17T03:01:31.253Z,94.93
2023-04-17T03:03:42.305Z,95.01
2023-04-17T03:05:49.044Z,95.30
2023-04-17T03:07:58.786Z,95.37
2023-04-17T03:10:13.026Z,95.97
2023-04-17T03:12:27.331Z,95.59
2023-04-17T03:14:40.408Z,95.86
2023-04-17T03:17:04.217Z,96.16
2023-04-17T03:21:45.157Z,95.26
2023-04-17T03:24:05.524Z,95.77
2023-04-17T03:26:10.511Z,95.44
2023-04-17T03:28:16.380Z,95.38
2023-04-17T03:30:24.652Z,94.99
2023-04-17T03:32:29.604Z,95.05
2023-04-17T03:34:37.289Z,94.70
2023-04-17T03:36:53.164Z,94.94
2023-04-17T03:39:13.056Z,95.01
2023-04-17T03:41:20.151Z,94.48
2023-04-17T03:43:25.249Z,94.07
2023-04-17T03:45:30.397Z,94.31
2023-04-17T03:47:35.550Z,94.37
2023-04-17T03:49:43.082Z,94.45
2023-04-17T03:51:48.231Z,94.90
2023-04-17T03:53:53.164Z,94.77
2023-04-17T03:55:58.049Z,94.54
2023-04-17T03:58:03.452Z,94.53
2023-04-17T04:00:10.941Z,94.65
2023-04-17T04:02:16.270Z,94.77
2023-04-17T04:04:23.591Z,94.83
2023-04-17T04:06:31.885Z,94.92
2023-04-17T04:08:37.845Z,94.72
2023-04-17T04:10:46.490Z,95.15
2023-04-17T04:12:54.922Z,94.86
2023-04-17T04:15:00.041Z,94.91
2023-04-17T04:17:04.920Z,95.05
2023-04-17T04:19:10.107Z,95.14
2023-04-17T04:21:15.235Z,95.14
2023-04-17T04:23:25.772Z,95.01
2023-04-17T04:25:30.914Z,94.83
2023-04-17T04:27:35.946Z,95.10
2023-04-17T04:29:52.424Z,95.09
2023-04-17T04:32:01.377Z,95.19
2023-04-17T04:34:14.951Z,95.01
2023-04-17T04:36:42.455Z,94.77
2023-04-17T04:39:21.990Z,94.52
2023-04-17T04:44:05.604Z,93.74
2023-04-17T04:46:10.966Z,93.92
2023-04-17T04:48:20.445Z,93.97
2023-04-17T04:50:27.338Z,94.21
2023-04-17T04:52:38.102Z,94.19
2023-04-17T04:54:52.756Z,93.87
2023-04-17T04:57:02.202Z,93.93
2023-04-17T04:59:07.403Z,94.21
2023-04-17T05:01:22.479Z,94.45
2023-04-17T05:03:29.011Z,94.33
2023-04-17T05:05:42.367Z,93.29
2023-04-17T05:07:55.077Z,93.45
2023-04-17T05:10:06.337Z,92.94
2023-04-17T05:14:53.419Z,92.97
2023-04-17T05:17:04.873Z,92.68
2023-04-17T05:19:11.579Z,92.75
2023-04-17T05:21:26.279Z,93.25
2023-04-17T05:23:41.893Z,93.05
2023-04-17T05:26:06.319Z,93.25
2023-04-17T05:28:16.928Z,92.76
2023-04-17T05:30:30.575Z,92.88
2023-04-17T05:32:42.235Z,92.96
2023-04-17T05:34:58.949Z,92.57
2023-04-17T05:37:10.019Z,92.91
2023-04-17T05:39:14.941Z,92.72
2023-04-17T05:41:24.587Z,92.50
2023-04-17T05:43:29.739Z,92.40
2023-04-17T05:45:34.789Z,92.02
2023-04-17T05:47:39.795Z,92.13
2023-04-17T05:49:45.126Z,92.29
2023-04-17T05:51:51.075Z,92.11
2023-04-17T05:53:56.780Z,91.44
2023-04-17T05:56:03.700Z,91.70
2023-04-17T05:58:23.241Z,91.81
2023-04-17T06:00:29.415Z,91.68
2023-04-17T06:02:34.577Z,91.22
2023-04-17T06:04:39.988Z,91.04
2023-04-17T06:06:45.165Z,90.88
2023-04-17T06:08:52.619Z,90.57
2023-04-17T06:10:57.704Z,90.90
2023-04-17T06:13:03.625Z,90.65
2023-04-17T06:15:12.501Z,90.73
2023-04-17T06:17:19.486Z,90.40
2023-04-17T06:19:27.151Z,90.13
2023-04-17T06:21:32.241Z,90.58
2023-04-17T06:23:37.302Z,90.53
2023-04-17T06:25:42.527Z,90.49
2023-04-17T06:27:50.008Z,90.59
2023-04-17T06:29:54.963Z,90.15
2023-04-17T06:32:02.813Z,90.57
2023-04-17T06:34:07.990Z,90.17
2023-04-17T06:36:13.114Z,90.13
2023-04-17T06:38:20.501Z,89.58
2023-04-17T06:40:25.790Z,89.42
2023-04-17T06:42:49.413Z,89.57
2023-04-17T06:45:04.550Z,89.08
2023-04-17T06:47:29.360Z,88.42
2023-04-17T06:49:35.304Z,88.17
2023-04-17T06:51:48.235Z,88.34
2023-04-17T06:53:53.537Z,88.65
2023-04-17T06:56:03.413Z,88.39
2023-04-17T06:58:11.666Z,88.41
2023-04-17T07:00:28.301Z,88.08
2023-04-17T07:02:41.570Z,88.07
2023-04-17T07:04:52.403Z,87.88
2023-04-17T07:07:05.109Z,87.78
2023-04-17T07:09:13.065Z,87.43
2023-04-17T07:11:33.733Z,87.50
2023-04-17T07:14:16.906Z,87.40
2023-04-17T07:16:31.625Z,87.22
2023-04-17T07:18:48.093Z,87.66
2023-04-17T07:20:55.802Z,86.89
2023-04-17T07:23:00.750Z,87.24
2023-04-17T07:25:05.881Z,86.92
2023-04-17T07:27:11.290Z,86.30
2023-04-17T07:29:16.356Z,86.67
2023-04-17T07:31:24.560Z,86.50
2023-04-17T07:33:29.675Z,86.25
2023-04-17T07:35:38.422Z,86.49
2023-04-17T07:37:43.487Z,86.29
2023-04-17T07:39:54.110Z,86.03
2023-04-17T07:41:59.269Z,85.65
2023-04-17T07:44:07.037Z,85.51
2023-04-17T07:46:11.929Z,85.62
2023-04-17T07:48:20.237Z,85.48
2023-04-17T07:50:28.572Z,85.59
2023-04-17T07:52:36.221Z,85.77
2023-04-17T07:54:44.246Z,85.35
2023-04-17T07:56:50.835Z,85.29
2023-04-17T07:58:56.996Z,85.69
2023-04-17T08:01:02.389Z,85.82
2023-04-17T08:03:07.771Z,85.38
2023-04-17T08:05:14.503Z,85.39
2023-04-17T08:07:22.884Z,85.73
2023-04-17T08:09:30.654Z,85.84
2023-04-17T08:11:42.768Z,85.69
2023-04-17T08:13:51.530Z,85.49
2023-04-17T08:15:56.432Z,85.60
2023-04-17T08:18:01.456Z,85.34
2023-04-17T08:20:14.519Z,85.92
2023-04-17T08:22:22.096Z,85.77
2023-04-17T08:24:26.994Z,85.49
2023-04-17T08:26:34.662Z,85.49
2023-04-17T08:28:39.657Z,85.80
2023-04-17T08:30:44.681Z,86.02
2023-04-17T08:32:52.499Z,85.76
2023-04-17T08:35:07.115Z,85.41
2023-04-17T08:37:12.454Z,84.97
2023-04-17T08:39:24.792Z,84.94
2023-04-17T08:41:41.799Z,85.10
2023-04-17T08:43:56.357Z,84.66
2023-04-17T08:46:05.002Z,84.62
2023-04-17T08:48:29.463Z,84.31
2023-04-17T08:50:34.756Z,84.30
2023-04-17T08:52:51.764Z,84.32
2023-04-17T08:54:57.631Z,84.02
2023-04-17T08:57:14.127Z,84.13
2023-04-17T08:59:31.860Z,83.45
2023-04-17T09:01:39.105Z,83.33
2023-04-17T09:03:59.697Z,82.53
2023-04-17T09:06:09.508Z,81.69
2023-04-17T09:08:21.912Z,81.55
2023-04-17T09:10:38.263Z,80.87
2023-04-17T09:13:02.753Z,81.06
2023-04-17T09:15:19.776Z,81.46
2023-04-17T09:17:27.688Z,80.62
2023-04-17T09:19:34.692Z,79.81
2023-04-17T09:21:40.155Z,79.51
2023-04-17T09:23:55.730Z,79.35
2023-04-17T09:26:11.083Z,79.43
2023-04-17T09:28:19.751Z,78.92
2023-04-17T09:30:27.803Z,78.56
2023-04-17T09:32:34.131Z,79.01
2023-04-17T09:34:45.344Z,78.85
2023-04-17T09:36:50.880Z,77.06
2023-04-17T09:38:58.571Z,76.75
2023-04-17T09:41:06.188Z,76.65
2023-04-17T09:43:15.831Z,76.12
2023-04-17T09:45:28.460Z,75.95
2023-04-17T09:47:33.786Z,75.89
2023-04-17T09:49:45.067Z,75.76
2023-04-17T09:51:50.405Z,76.11
2023-04-17T09:53:57.558Z,75.84
2023-04-17T09:56:05.903Z,75.16
2023-04-17T09:58:10.912Z,74.57
2023-04-17T10:00:18.231Z,74.91
2023-04-17T10:02:26.911Z,74.48
2023-04-17T10:04:32.359Z,74.57
2023-04-17T10:06:39.206Z,74.27
2023-04-17T10:08:44.794Z,74.79
2023-04-17T10:10:52.503Z,74.79
2023-04-17T10:13:01.196Z,74.00
2023-04-17T10:15:07.676Z,73.88
2023-04-17T10:17:32.930Z,72.95
2023-04-17T10:19:39.419Z,72.31
2023-04-17T10:21:48.947Z,73.11
2023-04-17T10:23:54.006Z,72.04
2023-04-17T10:26:28.974Z,70.88
2023-04-17T10:28:50.873Z,69.79
2023-04-17T10:30:57.121Z,69.01
2023-04-17T10:33:29.521Z,67.08
2023-04-17T10:35:43.335Z,64.80
2023-04-17T10:38:16.679Z,63.75
2023-04-17T10:40:28.566Z,65.40
2023-04-17T10:42:33.533Z,64.34
2023-04-17T10:44:38.909Z,63.83
2023-04-17T10:46:51.138Z,62.41
2023-04-17T10:48:58.708Z,64.42
2023-04-17T10:51:05.225Z,64.25
2023-04-17T10:53:10.225Z,64.21
2023-04-17T10:55:21.030Z,63.79
2023-04-17T10:57:56.818Z,63.45
2023-04-17T11:00:14.560Z,61.66
2023-04-17T11:02:20.124Z,60.99
2023-04-17T11:04:29.836Z,61.32
2023-04-17T11:06:36.479Z,61.13
2023-04-17T11:08:41.689Z,61.39
2023-04-17T11:10:47.487Z,60.82
2023-04-17T11:12:57.030Z,60.55
2023-04-17T11:15:05.628Z,59.82
2023-04-17T11:17:12.432Z,60.91
2023-04-17T11:19:24.516Z,61.40
2023-04-17T11:21:32.886Z,59.52
2023-04-17T11:23:38.136Z,58.93
2023-04-17T11:25:44.292Z,59.22
2023-04-17T11:27:51.484Z,58.16
2023-04-17T11:29:56.836Z,58.54
2023-04-17T11:32:01.852Z,58.68
2023-04-17T11:34:08.553Z,57.95
2023-04-17T11:36:13.772Z,58.23
2023-04-17T11:38:23.780Z,56.48
2023-04-17T11:40:33.500Z,55.75
2023-04-17T11:42:40.172Z,56.57
2023-04-17T11:44:49.602Z,57.96
2023-04-17T11:46:54.933Z,56.95
2023-04-17T11:49:00.050Z,55.24
2023-04-17T11:51:08.400Z,55.15
2023-04-17T11:53:17.189Z,54.58
2023-04-17T11:55:30.486Z,54.37
2023-04-17T11:57:45.335Z,54.59
2023-04-17T11:59:53.352Z,55.98
2023-04-17T12:02:00.856Z,54.27
2023-04-17T12:04:23.130Z,54.54
2023-04-17T12:06:38.384Z,55.36
2023-04-17T12:08:50.714Z,54.79
2023-04-17T12:10:58.915Z,54.95
2023-04-17T12:13:11.665Z,55.85
2023-04-17T12:15:21.718Z,55.20
2023-04-17T12:17:30.932Z,54.71
2023-04-17T12:19:36.819Z,53.33
2023-04-17T12:21:44.110Z,53.10
2023-04-17T12:23:52.798Z,53.08
2023-04-17T12:26:10.763Z,54.54
2023-04-17T12:28:23.837Z,53.88
2023-04-17T12:30:32.893Z,53.81
2023-04-17T12:32:39.569Z,53.37
2023-04-17T12:34:44.602Z,53.43
2023-04-17T12:36:50.817Z,53.17
2023-04-17T12:38:55.829Z,53.85
2023-04-17T12:41:03.519Z,53.74
2023-04-17T12:43:08.758Z,53.84
2023-04-17T12:45:14.022Z,53.13
2023-04-17T12:47:21.255Z,51.95
2023-04-17T12:49:26.534Z,52.46
2023-04-17T12:51:38.146Z,53.51
2023-04-17T12:53:46.329Z,54.38
2023-04-17T12:55:51.849Z,54.19
2023-04-17T12:57:59.397Z,53.21
2023-04-17T13:00:05.375Z,53.27
2023-04-17T13:02:10.566Z,52.46
2023-04-17T13:04:16.288Z,53.71
2023-04-17T13:06:24.841Z,51.96
2023-04-17T13:08:29.714Z,50.98
2023-04-17T13:10:34.703Z,50.99
2023-04-17T13:12:42.391Z,51.01
2023-04-17T13:14:50.005Z,51.39
2023-04-17T13:16:55.025Z,50.91
2023-04-17T13:18:59.900Z,51.78
2023-04-17T13:21:05.066Z,51.25
2023-04-17T13:23:12.084Z,51.73
2023-04-17T13:25:18.288Z,51.60
2023-04-17T13:27:23.300Z,49.48
2023-04-17T13:29:28.700Z,50.45
2023-04-17T13:31:36.609Z,50.55
2023-04-17T13:33:41.669Z,48.67
2023-04-17T13:35:46.898Z,49.62
2023-04-17T13:37:52.427Z,48.99
2023-04-17T13:39:57.328Z,49.19
2023-04-17T13:42:02.282Z,49.76
2023-04-17T13:44:07.482Z,50.81
2023-04-17T13:46:16.244Z,50.80
2023-04-17T13:48:23.909Z,49.57
2023-04-17T13:50:28.872Z,49.28
2023-04-17T13:52:33.681Z,50.13
2023-04-17T13:54:38.414Z,49.09
2023-04-17T13:56:43.346Z,49.65
2023-04-17T13:58:48.558Z,49.84
2023-04-17T14:00:53.793Z,50.10
2023-04-17T14:02:58.982Z,50.44
2023-04-17T14:05:07.221Z,49.05
2023-04-17T14:07:13.163Z,49.46
2023-04-17T14:09:19.675Z,50.58
2023-04-17T14:11:24.750Z,52.06
2023-04-17T14:13:29.902Z,51.25
2023-04-17T14:15:35.147Z,50.74
2023-04-17T14:17:43.438Z,50.84
2023-04-17T14:19:48.489Z,50.84
2023-04-17T14:21:56.059Z,50.30
2023-04-17T14:24:01.066Z,50.05
2023-04-17T14:26:07.319Z,48.99
2023-04-17T14:28:12.724Z,47.97
2023-04-17T14:30:19.960Z,48.98
2023-04-17T14:32:25.161Z,49.70
2023-04-17T14:34:30.335Z,49.06
2023-04-17T14:36:36.810Z,48.94
2023-04-17T14:38:52.155Z,48.15
2023-04-17T14:40:57.229Z,48.49
2023-04-17T14:43:02.390Z,49.75
2023-04-17T14:45:08.518Z,49.87
2023-04-17T14:47:14.051Z,49.54
2023-04-17T14:49:22.372Z,49.60
2023-04-17T14:51:27.555Z,49.10
2023-04-17T14:53:32.705Z,49.28
2023-04-17T14:55:40.608Z,47.81
2023-04-17T14:57:45.674Z,48.50
2023-04-17T14:59:51.198Z,47.75
2023-04-17T15:01:57.202Z,48.36
2023-04-17T15:04:03.738Z,48.39
2023-04-17T15:06:09.270Z,49.80
2023-04-17T15:08:14.201Z,48.48
2023-04-17T15:10:21.344Z,48.32
2023-04-17T15:12:29.662Z,48.06
2023-04-17T15:14:34.620Z,48.02
2023-04-17T15:16:39.632Z,47.18
2023-04-17T15:18:44.663Z,46.16
2023-04-17T15:20:49.949Z,46.21
2023-04-17T15:22:55.698Z,46.17
2023-04-17T15:25:00.900Z,47.11
2023-04-17T15:27:05.779Z,47.11
2023-04-17T15:29:13.364Z,46.61
2023-04-17T15:31:20.057Z,46.80
2023-04-17T15:33:26.188Z,46.18
2023-04-17T15:35:31.487Z,46.86
2023-04-17T15:37:36.757Z,46.80
2023-04-17T15:39:42.523Z,47.02
2023-04-17T15:41:47.508Z,46.28
2023-04-17T15:43:53.148Z,46.21
2023-04-17T15:46:02.524Z,45.82
2023-04-17T15:48:07.603Z,46.46
2023-04-17T15:50:13.853Z,46.89
2023-04-17T15:52:20.884Z,46.30
2023-04-17T15:54:26.352Z,46.68
2023-04-17T15:56:31.391Z,46.40
2023-04-17T15:58:37.123Z,47.20
2023-04-17T16:00:41.938Z,47.46
2023-04-17T16:02:49.908Z,48.09
2023-04-17T16:04:55.037Z,49.32
2023-04-17T16:07:02.832Z,49.35
2023-04-17T16:09:07.679Z,49.87
2023-04-17T16:11:12.734Z,49.67
2023-04-17T16:13:19.975Z,49.45
2023-04-17T16:15:25.060Z,48.89
2023-04-17T16:17:30.563Z,51.50
2023-04-17T16:19:39.495Z,52.41
2023-04-17T16:21:44.589Z,53.05
2023-04-17T16:23:49.682Z,53.59
2023-04-17T16:25:56.292Z,52.93
2023-04-17T16:28:01.433Z,51.81
2023-04-17T16:30:07.083Z,51.83
2023-04-17T16:32:12.285Z,53.10
2023-04-17T16:34:21.016Z,53.41
2023-04-17T16:36:33.213Z,53.80
2023-04-17T16:38:39.587Z,54.65
2023-04-17T16:40:44.786Z,55.01
2023-04-17T16:42:49.614Z,54.91
2023-04-17T16:44:54.585Z,54.64
2023-04-17T16:47:12.628Z,54.71
2023-04-17T16:49:21.118Z,54.54
2023-04-17T16:51:32.056Z,54.78
2023-04-17T16:53:36.970Z,55.25
2023-04-17T16:55:41.897Z,55.52
2023-04-17T16:57:48.345Z,55.17
2023-04-17T16:59:53.476Z,55.34
2023-04-17T17:02:00.028Z,55.72
2023-04-17T17:04:06.491Z,55.86
2023-04-17T17:06:12.108Z,56.28
2023-04-17T17:08:19.808Z,56.85
2023-04-17T17:10:24.928Z,57.40
2023-04-17T17:12:29.905Z,57.43
2023-04-17T17:14:35.043Z,58.26
2023-04-17T17:16:41.057Z,58.35
2023-04-17T17:18:46.180Z,58.11
2023-04-17T17:20:54.394Z,58.70
2023-04-17T17:23:07.207Z,59.10
2023-04-17T17:25:21.116Z,59.62
2023-04-17T17:27:26.050Z,60.13
2023-04-17T17:29:31.815Z,59.89
2023-04-17T17:31:38.851Z,60.19
2023-04-17T17:33:44.693Z,60.88
2023-04-17T17:35:49.918Z,61.16
2023-04-17T17:37:54.799Z,61.97
2023-04-17T17:40:00.003Z,62.47
2023-04-17T17:42:09.648Z,62.65
2023-04-17T17:44:14.963Z,63.21
2023-04-17T17:46:21.394Z,63.12
2023-04-17T17:48:28.183Z,63.21
2023-04-17T17:50:33.522Z,64.72
2023-04-17T17:52:38.662Z,66.62
2023-04-17T17:54:44.044Z,67.47
2023-04-17T17:56:50.162Z,67.31
2023-04-17T17:58:58.854Z,67.89
2023-04-17T18:01:04.104Z,67.66
2023-04-17T18:03:09.596Z,68.77
2023-04-17T18:05:14.886Z,69.13
2023-04-17T18:07:20.473Z,69.46
2023-04-17T18:09:28.436Z,70.61
2023-04-17T18:11:33.724Z,70.97
2023-04-17T18:13:38.753Z,71.36
2023-04-17T18:15:46.435Z,71.19
2023-04-17T18:17:53.627Z,72.13
2023-04-17T18:19:58.933Z,72.42
2023-04-17T18:22:04.166Z,72.43
2023-04-17T18:24:11.061Z,72.32
2023-04-17T18:26:16.575Z,73.43
2023-04-17T18:28:24.970Z,73.82
2023-04-17T18:30:30.956Z,74.23
2023-04-17T18:32:39.226Z,74.76
2023-04-17T18:34:44.522Z,74.52
2023-04-17T18:36:56.033Z,74.50
2023-04-17T18:39:02.596Z,74.42
2023-04-17T18:41:10.646Z,74.98
2023-04-17T18:43:20.286Z,75.58
2023-04-17T18:48:06.088Z,75.46
2023-04-17T18:50:37.014Z,75.82
2023-04-17T18:52:51.127Z,76.16
2023-04-17T18:55:03.266Z,76.76
2023-04-17T18:57:14.170Z,77.73
2023-04-17T18:59:34.315Z,76.89
2023-04-17T19:01:44.395Z,78.14
2023-04-17T19:06:30.281Z,78.50
2023-04-17T19:08:42.647Z,78.90
2023-04-17T19:10:51.341Z,79.49
2023-04-17T19:12:56.570Z,79.45
2023-04-17T19:15:01.817Z,79.53
2023-04-17T19:17:09.578Z,79.74
2023-04-17T19:19:20.136Z,79.97
2023-04-17T19:21:28.166Z,81.08
2023-04-17T19:23:34.418Z,80.77
2023-04-17T19:25:41.995Z,80.90
2023-04-17T19:27:47.031Z,81.39
2023-04-17T19:29:54.675Z,81.60
2023-04-17T19:32:01.195Z,80.90
2023-04-17T19:34:07.239Z,81.04
2023-04-17T19:36:15.274Z,81.50
2023-04-17T19:38:21.622Z,81.30
2023-04-17T19:40:26.831Z,81.17
2023-04-17T19:42:32.210Z,81.52
2023-04-17T19:44:37.198Z,81.72
2023-04-17T19:46:42.191Z,81.68
2023-04-17T19:48:48.611Z,81.54
2023-04-17T19:50:54.360Z,82.26
2023-04-17T19:53:04.939Z,82.35
2023-04-17T19:55:10.548Z,82.52
2023-04-17T19:57:15.535Z,82.80
2023-04-17T19:59:20.417Z,83.45
2023-04-17T20:01:25.181Z,83.54
2023-04-17T20:03:33.156Z,83.65
2023-04-17T20:05:38.647Z,83.89
2023-04-17T20:07:47.301Z,83.26
2023-04-17T20:09:55.315Z,83.55
2023-04-17T20:12:05.969Z,83.32
2023-04-17T20:14:12.533Z,83.09
2023-04-17T20:16:20.732Z,83.04
2023-04-17T20:18:29.357Z,83.20
2023-04-17T20:20:36.128Z,82.59
2023-04-17T20:22:44.767Z,82.83
2023-04-17T20:24:51.279Z,82.94
2023-04-17T20:27:07.334Z,82.72
2023-04-17T20:29:14.027Z,82.58
2023-04-17T20:31:19.701Z,82.67
2023-04-17T20:33:30.304Z,83.04
2023-04-17T20:35:36.649Z,82.90
2023-04-17T20:37:44.669Z,83.29
2023-04-17T20:39:49.849Z,83.11
2023-04-17T20:41:54.895Z,83.22
2023-04-17T20:44:04.273Z,83.17
2023-04-17T20:46:09.895Z,83.34
2023-04-17T20:48:15.068Z,83.08
2023-04-17T20:50:20.507Z,83.10
2023-04-17T20:52:26.149Z,82.94
2023-04-17T20:54:32.835Z,83.33
2023-04-17T20:56:38.164Z,83.53
2023-04-17T20:58:43.409Z,83.64
2023-04-17T21:01:01.389Z,83.61
2023-04-17T21:03:07.825Z,83.70
2023-04-17T21:05:13.572Z,83.38
2023-04-17T21:07:21.228Z,83.91
2023-04-17T21:09:27.516Z,83.77
2023-04-17T21:11:32.759Z,83.60
2023-04-17T21:13:38.079Z,84.01
2023-04-17T21:15:43.017Z,84.23
2023-04-17T21:17:50.772Z,83.86
2023-04-17T21:19:56.136Z,83.67
2023-04-17T21:22:02.225Z,83.86
2023-04-17T21:24:07.420Z,83.84
2023-04-17T21:26:12.500Z,84.04
2023-04-17T21:28:20.523Z,83.44
2023-04-17T21:30:27.371Z,84.00
2023-04-17T21:32:32.652Z,83.87
2023-04-17T21:34:40.414Z,83.95
2023-04-17T21:36:45.389Z,83.76
2023-04-17T21:38:50.344Z,84.48
2023-04-17T21:40:55.514Z,83.96
2023-04-17T21:43:00.588Z,83.66
2023-04-17T21:45:05.626Z,83.77
2023-04-17T21:47:11.014Z,83.69
2023-04-17T21:49:16.097Z,83.80
2023-04-17T21:51:23.617Z,84.01
2023-04-17T21:53:29.336Z,84.01
2023-04-17T21:55:34.404Z,83.76
2023-04-17T21:57:41.041Z,84.09
2023-04-17T21:59:49.995Z,84.04
2023-04-17T22:01:57.367Z,84.35
2023-04-17T22:04:04.080Z,84.37
2023-04-17T22:06:09.467Z,84.50
2023-04-17T22:08:18.285Z,84.33
2023-04-17T22:10:24.895Z,84.16
2023-04-17T22:12:39.756Z,84.81
2023-04-17T22:14:49.905Z,84.84
2023-04-17T22:16:57.987Z,84.92
2023-04-17T22:19:08.372Z,84.93
2023-04-17T22:21:13.384Z,84.51
2023-04-17T22:23:23.556Z,84.87
2023-04-17T22:25:32.499Z,84.74
2023-04-17T22:27:43.643Z,84.94
2023-04-17T22:29:54.195Z,85.01
2023-04-17T22:32:02.355Z,85.45
2023-04-17T22:34:08.922Z,85.54
2023-04-17T22:36:14.296Z,85.41
2023-04-17T22:38:29.726Z,85.73
2023-04-17T22:40:40.443Z,85.35
2023-04-17T22:42:49.795Z,85.79
2023-04-17T22:44:59.016Z,85.98
2023-04-17T22:47:04.488Z,85.76
2023-04-17T22:49:09.924Z,85.79
2023-04-17T22:51:21.271Z,85.70
2023-04-17T22:53:32.544Z,85.85
2023-04-17T22:55:42.976Z,85.92
2023-04-17T22:57:48.790Z,86.03
2023-04-17T22:59:56.570Z,86.21
2023-04-17T23:02:04.779Z,86.27
2023-04-17T23:04:10.924Z,86.40
2023-04-17T23:06:20.864Z,86.82
2023-04-17T23:08:26.436Z,86.45
2023-04-17T23:10:35.813Z,86.99
2023-04-17T23:12:43.656Z,86.66
2023-04-17T23:14:50.357Z,87.11
2023-04-17T23:16:55.322Z,87.52
2023-04-17T23:19:00.387Z,87.37
2023-04-17T23:21:08.345Z,87.63
2023-04-17T23:23:21.782Z,87.14
2023-04-17T23:25:29.910Z,87.31
2023-04-17T23:27:40.383Z,87.75
2023-04-17T23:29:46.040Z,87.75
2023-04-17T23:31:59.485Z,87.81
2023-04-17T23:34:04.880Z,87.93
2023-04-17T23:36:13.337Z,88.05
2023-04-17T23:38:30.614Z,88.29
2023-04-17T23:40:38.017Z,88.00
2023-04-17T23:42:46.235Z,89.02
2023-04-17T23:44:54.670Z,88.33
2023-04-17T23:47:00.265Z,89.12
2023-04-17T23:49:05.938Z,88.62
2023-04-17T23:51:10.921Z,88.66
2023-04-17T23:53:16.784Z,88.92
2023-04-17T23:55:26.014Z,88.90
2023-04-17T23:57:30.993Z,89.09
2023-04-17T23:59:39.561Z,89.19
